Aérodrome :
LOGIN :

S'inscrire | Disclaimer

   EN    FR    IT 

 










Légende :    VFR   VFR Marginal   IFR   IFR Intensif   IFR Très Intensif
Visi : 
Plafond : 
>= 8 km
>= 3000ft
5 à 8 km
1000 à 3000 ft
1500m à 5 km
500 à 1000 ft
800 à 1500m
200 à 500 ft
< 800m
< 200 ft
Symboles :   Orages  Brouillard  Fortes neiges  Fortes précipitations  Vent > 20 kt
SIGMETs :   Divers  Orages  Givrage  Turbulence  Onde Orograph.  Cendres Volcan.






- Altitude de l'aérodrome : 512 ft
- Code IATA : URO


LFOP - Rouen Vallée de Seine

DERNIER METAR :
  • 232000Z AUTO 30008KT 260V330 4700 -RADZ BR BKN003 OVC013 11/11 Q1025 TEMPO 27015G25KT 2000 RADZ

METARs EXPIRÉS :
  • 231930Z AUTO 28009KT 250V320 7000 -DZ OVC003 11/11 Q1025 TEMPO 27015G25KT 2000 RADZ
  • 231900Z AUTO 28012KT 230V300 3900 -RADZ BR OVC004 11/11 Q1025 TEMPO 2000 RADZ BECMG 27015G25KT
  • 231830Z AUTO 27012KT 240V320 5000 -DZ BR OVC004 11/11 Q1024 TEMPO 2000 RADZ BECMG 27015G25KT
  • 231800Z AUTO 27011KT 240V320 5000 -DZ BR OVC004 12/11 Q1024 TEMPO 2000 RADZ BECMG 27015G25KT

TAF TAF LFOP
Valide du 23 à 18h jusqu'au 24 à 18h UTC


231700Z 2318/2418 27015G25KT 9999 OVC008
TEMPO 2318/2411 2000 RADZ OVC003
BECMG 2321/2324 22008KT
FM241100 23016KT 9999 BKN013
TEMPO 2411/2416 23020G33KT BKN025
TEMPO 2416/2418 23020G33KT 3000 RA OVC008
ATIS : +33 2 35 80 80 34
Météo : +33 2 32 86 52 80



MET'MAP, la Météo Aéronautique d'un coup d'oeil ! - Copyright ORBIFLY Décembre 2007 - Disclaimer

ORBIFLY MET'MAP TEAM :

Programmation & Développement : Alexandra Zaïnal
Sur une idée originale de : Baudouin d'Aumeries
Assistance à la programmation : Marc-Olivier Méhu
Soutien technique & logistique : Manuel Goepfert

Contact : metmap@orbifly.com




SOURCES & CREDITS :

   NOAA